Time;durP1;ratioP1;P1;durP2;ratioP2;P2;SDS_P1;SDS_P2;PMS_P1;PMS_P2;Temp;Humidity;BMP_temperature;BMP_pressure;BME280_temperature;BME280_humidity;BME280_pressure;Samples;Min_cycle;Max_cycle;Signal;HPM_P1;HPM_P2
2021/05/11 00:01:18;;;;;;;3.90;1.65;;;;;;;18.30;45.93;101645.78;144994;675;5002;-79
2021/05/11 00:03:44;;;;;;;2.80;1.60;;;;;;;18.28;45.33;101637.88;144994;594;5002;-79
2021/05/11 00:06:12;;;;;;;3.17;1.90;;;;;;;18.33;45.75;101637.94;144994;566;5002;-78
2021/05/11 00:08:38;;;;;;;2.83;1.30;;;;;;;18.36;45.56;101637.09;144994;612;5002;-78
2021/05/11 00:11:05;;;;;;;3.60;1.35;;;;;;;18.39;45.39;101635.41;144994;661;5002;-80
2021/05/11 00:13:32;;;;;;;4.40;1.80;;;;;;;18.39;45.27;101632.78;144994;574;5002;-79
2021/05/11 00:15:59;;;;;;;2.70;1.40;;;;;;;18.36;45.28;101639.72;144994;564;5002;-79
2021/05/11 00:18:27;;;;;;;2.58;1.40;;;;;;;18.36;45.11;101638.00;144994;613;5002;-76
2021/05/11 00:20:55;;;;;;;3.47;1.58;;;;;;;18.39;44.75;101631.88;144994;572;5002;-75
2021/05/11 00:23:21;;;;;;;3.47;1.42;;;;;;;18.44;44.53;101635.47;144994;564;5002;-76
2021/05/11 00:25:48;;;;;;;2.58;1.42;;;;;;;18.27;43.46;101632.63;144994;598;5002;-80
2021/05/11 00:28:14;;;;;;;3.47;1.37;;;;;;;18.22;44.84;101637.81;144994;683;5002;-79
2021/05/11 00:30:41;;;;;;;3.45;1.40;;;;;;;18.18;44.94;101637.75;144994;582;5002;-79
2021/05/11 00:33:08;;;;;;;2.67;1.37;;;;;;;18.19;44.72;101629.00;144994;571;5002;-79
2021/05/11 00:35:37;;;;;;;2.00;1.33;;;;;;;18.11;45.08;101635.03;144994;624;5002;-79
2021/05/11 00:38:05;;;;;;;2.22;1.50;;;;;;;18.20;44.98;101633.37;144994;629;5002;-80
2021/05/11 00:40:33;;;;;;;4.50;1.52;;;;;;;18.16;44.81;101629.84;144994;696;5002;-79
2021/05/11 00:43:00;;;;;;;1.70;1.42;;;;;;;18.00;44.33;101634.00;144994;579;5002;-80
2021/05/11 00:45:26;;;;;;;3.08;1.58;;;;;;;17.98;44.35;101635.75;144994;616;5002;-80
2021/05/11 00:47:54;;;;;;;3.53;1.60;;;;;;;17.95;44.61;101631.31;144994;578;5002;-78
2021/05/11 00:50:21;;;;;;;1.85;1.40;;;;;;;18.02;44.73;101629.66;144994;597;5002;-79
2021/05/11 00:52:47;;;;;;;1.75;1.50;;;;;;;17.82;43.63;101631.97;144994;594;5002;-78
2021/05/11 00:55:15;;;;;;;2.12;1.40;;;;;;;17.84;44.96;101639.87;144994;605;5002;-80
2021/05/11 00:57:42;;;;;;;2.30;1.33;;;;;;;17.93;44.75;101635.69;144994;672;5002;-78
2021/05/11 01:00:11;;;;;;;2.37;1.37;;;;;;;17.97;44.32;101641.84;144994;584;5002;-83
2021/05/11 01:02:38;;;;;;;3.17;1.48;;;;;;;18.04;44.50;101643.72;144994;598;5002;-79
2021/05/11 01:05:06;;;;;;;2.20;1.42;;;;;;;18.09;44.14;101641.16;144994;619;5002;-79
2021/05/11 01:07:34;;;;;;;3.35;1.40;;;;;;;18.12;44.08;101638.56;144994;587;5002;-77
2021/05/11 01:10:01;;;;;;;4.47;1.50;;;;;;;18.11;44.17;101637.66;144994;563;5002;-79
2021/05/11 01:12:28;;;;;;;1.95;1.45;;;;;;;18.13;43.84;101633.34;144994;630;5002;-80
2021/05/11 01:14:56;;;;;;;2.22;1.50;;;;;;;18.16;44.02;101637.72;144994;570;5002;-81
2021/05/11 01:17:27;;;;;;;2.97;1.65;;;;;;;18.21;43.91;101630.78;144994;590;5002;-76
2021/05/11 01:19:59;;;;;;;2.08;1.50;;;;;;;18.30;43.96;101627.41;144993;649;5002;-78
2021/05/11 01:23:02;;;;;;;2.12;1.40;;;;;;;18.36;43.79;101632.72;144994;609;5002;-79
2021/05/11 01:25:31;;;;;;;2.45;1.37;;;;;;;18.44;43.44;101625.81;144994;728;5004;-79
2021/05/11 01:28:19;;;;;;;2.00;1.40;;;;;;;18.51;43.47;101628.53;144994;575;5004;-80
2021/05/11 01:48:04;;;;;;;3.15;1.90;;;;;;;18.23;43.91;101622.91;144994;584;5004;-79
2021/05/11 02:10:51;;;;;;;4.25;1.70;;;;;;;17.96;44.89;101613.84;144994;654;5002;-79
2021/05/11 02:24:14;;;;;;;5.10;1.95;;;;;;;17.86;45.89;101606.63;144994;594;5004;-79
2021/05/11 02:26:40;;;;;;;4.45;1.98;;;;;;;17.82;45.81;101607.47;144994;571;5004;-78
2021/05/11 02:29:07;;;;;;;7.05;1.90;;;;;;;17.81;46.04;101603.94;144993;573;5004;-79
2021/05/11 02:31:36;;;;;;;3.62;1.92;;;;;;;17.83;46.16;101599.63;144994;639;5002;-81
2021/05/11 02:34:08;;;;;;;4.32;1.95;;;;;;;17.88;46.08;101605.84;144994;612;5002;-81
2021/05/11 02:36:48;;;;;;;4.43;1.80;;;;;;;17.96;46.21;101598.06;144994;636;5002;-80
2021/05/11 02:39:25;;;;;;;3.45;1.95;;;;;;;18.01;46.21;101588.50;144993;580;5002;-79
2021/05/11 02:41:55;;;;;;;3.35;2.30;;;;;;;18.13;46.07;101588.66;144994;602;5002;-81
2021/05/11 02:44:24;;;;;;;2.25;1.77;;;;;;;18.22;45.89;101589.63;144994;591;5002;-77
2021/05/11 02:46:50;;;;;;;5.93;2.15;;;;;;;18.22;45.33;101582.63;144994;591;5002;-80
2021/05/11 02:49:19;;;;;;;3.58;2.10;;;;;;;18.07;44.35;101575.44;144993;576;5002;-80
2021/05/11 02:51:46;;;;;;;4.25;1.83;;;;;;;17.98;45.54;101575.31;144994;574;5002;-80
2021/05/11 02:54:13;;;;;;;3.37;1.85;;;;;;;18.00;45.21;101570.09;144994;589;5014;-79
2021/05/11 02:56:39;;;;;;;2.53;2.05;;;;;;;17.81;45.33;101582.94;144994;572;5002;-79
2021/05/11 02:59:06;;;;;;;5.15;1.70;;;;;;;17.64;45.60;101584.44;144994;626;5002;-79
2021/05/11 03:01:32;;;;;;;6.57;2.03;;;;;;;17.69;45.49;101577.50;144994;641;5002;-79
2021/05/11 03:03:59;;;;;;;4.45;1.80;;;;;;;17.58;45.42;101574.75;144994;579;5002;-79
2021/05/11 03:06:25;;;;;;;4.70;1.95;;;;;;;17.50;45.03;101571.09;144994;608;5002;-80
2021/05/11 03:08:52;;;;;;;2.55;1.77;;;;;;;17.39;45.37;101574.47;144994;579;5002;-79
2021/05/11 03:11:18;;;;;;;3.42;2.00;;;;;;;17.41;45.60;101572.75;144994;582;5002;-79
2021/05/11 03:13:45;;;;;;;6.35;1.90;;;;;;;17.45;45.34;101572.78;144994;586;5003;-79
2021/05/11 03:16:12;;;;;;;3.83;1.40;;;;;;;17.45;45.46;101570.16;144994;596;5002;-80
2021/05/11 03:18:38;;;;;;;3.62;1.67;;;;;;;17.40;45.30;101575.34;144994;605;5002;-79
2021/05/11 03:21:05;;;;;;;3.40;1.85;;;;;;;17.44;45.22;101579.78;144994;593;5002;-80
2021/05/11 03:23:31;;;;;;;4.57;1.85;;;;;;;17.34;44.57;101573.53;144994;594;5002;-80
2021/05/11 03:25:58;;;;;;;3.17;1.70;;;;;;;17.37;44.76;101570.94;144994;585;5002;-79
2021/05/11 03:28:27;;;;;;;5.78;1.90;;;;;;;17.41;44.81;101578.00;144994;590;5002;-79
2021/05/11 03:30:54;;;;;;;4.50;1.85;;;;;;;17.41;44.96;101578.00;144994;564;5002;-79
2021/05/11 03:33:20;;;;;;;6.57;1.75;;;;;;;17.40;44.51;101573.63;144994;555;5002;-79
2021/05/11 03:35:47;;;;;;;3.55;1.67;;;;;;;17.40;44.15;101578.87;144994;564;5002;-79
2021/05/11 03:38:14;;;;;;;2.47;1.85;;;;;;;17.39;44.60;101579.72;144994;602;5002;-79
2021/05/11 03:40:41;;;;;;;5.05;1.60;;;;;;;17.30;44.57;101587.44;144994;640;5002;-78
2021/05/11 03:43:12;;;;;;;6.25;1.83;;;;;;;17.30;44.77;101595.31;144994;597;5002;-80
2021/05/11 03:45:44;;;;;;;2.65;1.40;;;;;;;17.27;44.76;101595.25;144994;608;5002;-79
2021/05/11 03:48:11;;;;;;;5.22;1.80;;;;;;;17.27;44.35;101590.00;144994;591;5002;-79
2021/05/11 03:50:37;;;;;;;4.12;1.70;;;;;;;17.30;44.46;101597.94;144994;606;5002;-79
2021/05/11 03:53:04;;;;;;;4.00;1.90;;;;;;;17.29;44.59;101592.66;144994;601;5002;-80
2021/05/11 03:55:32;;;;;;;6.95;1.98;;;;;;;17.30;44.40;101600.56;144993;606;5002;-80
2021/05/11 03:57:59;;;;;;;6.47;1.80;;;;;;;17.32;44.57;101595.34;144994;652;5002;-77
2021/05/11 04:00:27;;;;;;;6.85;1.90;;;;;;;17.19;44.81;101603.00;144994;584;5002;-75
2021/05/11 04:02:53;;;;;;;7.80;4.90;;;;;;;17.27;44.78;101597.88;144993;600;5002;-80
2021/05/11 04:05:20;;;;;;;11.02;5.15;;;;;;;17.32;44.50;101601.50;144994;590;5002;-79
2021/05/11 04:07:54;;;;;;;6.22;4.00;;;;;;;17.37;44.93;101601.53;144994;606;5002;-79
2021/05/11 04:10:30;;;;;;;5.97;3.53;;;;;;;17.41;44.49;101612.09;144994;585;5002;-80
2021/05/11 04:18:25;;;;;;;5.53;2.95;;;;;;;17.55;44.64;101604.44;144994;607;5002;-78
2021/05/11 04:20:52;;;;;;;5.95;2.58;;;;;;;17.57;44.59;101605.34;144994;566;5002;-79
2021/05/11 04:23:18;;;;;;;5.55;2.70;;;;;;;17.62;44.50;101605.41;144994;576;5002;-78
2021/05/11 04:25:46;;;;;;;7.93;2.80;;;;;;;17.69;44.59;101609.91;144994;569;5002;-78
2021/05/11 04:28:12;;;;;;;8.98;2.60;;;;;;;17.75;44.76;101609.09;144994;583;4566;-77
2021/05/11 04:30:39;;;;;;;6.05;2.15;;;;;;;17.77;44.75;101610.91;144994;573;4567;-78
2021/05/11 04:33:05;;;;;;;8.50;2.10;;;;;;;17.83;44.86;101617.09;144994;590;4572;-78
2021/05/11 04:35:32;;;;;;;8.77;2.60;;;;;;;17.82;44.97;101612.72;144994;613;4573;-78
2021/05/11 04:37:58;;;;;;;10.77;2.33;;;;;;;17.85;44.99;101621.53;144991;565;6002;-77
2021/05/11 04:40:25;;;;;;;11.02;2.65;;;;;;;17.88;44.89;101628.56;144992;564;6002;-77
2021/05/11 04:42:51;;;;;;;7.60;2.80;;;;;;;17.76;45.00;101624.88;144992;607;6002;-77
2021/05/11 04:45:23;;;;;;;7.22;2.30;;;;;;;17.75;45.05;101627.50;144992;610;6002;-78
2021/05/11 04:47:53;;;;;;;4.90;2.10;;;;;;;17.72;45.40;101622.19;144992;569;6002;-77
2021/05/11 04:50:24;;;;;;;7.85;2.40;;;;;;;17.76;45.04;101624.00;144992;572;6002;-81
2021/05/11 04:52:51;;;;;;;8.93;3.60;;;;;;;17.84;45.16;101625.00;144992;564;6002;-78
2021/05/11 04:55:18;;;;;;;9.55;2.85;;;;;;;17.89;45.06;101625.97;144992;563;6002;-77
2021/05/11 04:57:45;;;;;;;5.55;2.40;;;;;;;18.00;45.12;101631.38;144992;582;6002;-79
2021/05/11 05:00:14;;;;;;;9.73;2.65;;;;;;;18.08;45.08;101628.88;144992;582;6002;-77
2021/05/11 05:02:47;;;;;;;6.60;2.28;;;;;;;18.17;44.89;101617.59;144992;591;6002;-77
2021/05/11 05:05:15;;;;;;;3.75;2.00;;;;;;;18.26;44.82;101621.22;144992;609;6002;-74
2021/05/11 05:07:42;;;;;;;3.53;2.20;;;;;;;18.34;44.63;101620.41;144992;578;6002;-77
2021/05/11 05:10:09;;;;;;;5.30;2.75;;;;;;;18.40;44.54;101620.50;144992;585;6002;-78
2021/05/11 05:12:36;;;;;;;4.95;2.05;;;;;;;18.44;44.67;101617.94;144992;634;6003;-79
2021/05/11 05:15:03;;;;;;;5.12;2.00;;;;;;;18.51;44.77;101612.75;144992;564;6002;-77
2021/05/11 05:17:32;;;;;;;7.93;3.08;;;;;;;18.57;44.56;101620.72;144992;574;6002;-78
2021/05/11 05:19:59;;;;;;;8.02;2.83;;;;;;;18.64;44.41;101617.25;144992;637;6002;-80
2021/05/11 05:22:25;;;;;;;8.63;2.60;;;;;;;18.71;44.48;101616.47;144992;586;6002;-78
2021/05/11 05:24:55;;;;;;;7.82;2.90;;;;;;;18.74;44.64;101618.22;144992;593;6002;-80
2021/05/11 05:27:25;;;;;;;6.80;2.37;;;;;;;18.79;44.39;101624.44;144992;678;6002;-79
2021/05/11 05:29:51;;;;;;;7.22;2.50;;;;;;;18.85;44.65;101617.53;144992;570;6002;-78
2021/05/11 05:32:18;;;;;;;5.37;2.80;;;;;;;18.89;44.77;101617.56;144992;585;6002;-78
2021/05/11 05:34:45;;;;;;;5.90;2.97;;;;;;;18.94;44.72;101619.34;144992;563;6002;-79
2021/05/11 05:37:11;;;;;;;6.82;2.85;;;;;;;19.02;44.76;101625.56;144992;594;6002;-78
2021/05/11 05:39:42;;;;;;;5.90;3.47;;;;;;;18.97;44.94;101624.66;144992;722;6002;-78
2021/05/11 05:42:12;;;;;;;5.25;2.85;;;;;;;19.03;44.86;101618.56;144992;569;6002;-79
2021/05/11 05:44:38;;;;;;;9.32;4.00;;;;;;;19.10;44.83;101624.75;144992;712;6002;-77
2021/05/11 05:47:04;;;;;;;8.20;4.80;;;;;;;18.69;47.68;101633.97;144992;720;6002;-77
2021/05/11 05:49:54;;;;;;;6.95;3.65;;;;;;;18.31;50.35;101637.06;144992;579;6002;-79
2021/05/11 05:52:21;;;;;;;7.10;3.03;;;;;;;18.29;50.67;101630.88;144992;710;6002;-79
2021/05/11 05:54:48;;;;;;;6.43;3.20;;;;;;;18.35;50.69;101635.34;144992;624;6002;-78
2021/05/11 05:57:15;;;;;;;6.25;2.60;;;;;;;18.47;48.70;101635.50;144992;658;6002;-79
2021/05/11 05:59:45;;;;;;;3.75;2.42;;;;;;;18.55;48.36;101630.31;144992;612;6002;-78
2021/05/11 06:02:19;;;;;;;6.57;2.70;;;;;;;18.63;48.42;101633.94;144992;651;6002;-78
2021/05/11 06:04:45;;;;;;;5.43;2.93;;;;;;;18.58;50.08;101632.97;144992;584;6002;-78
2021/05/11 06:07:13;;;;;;;6.75;2.70;;;;;;;18.61;50.54;101635.62;144992;564;6002;-78
2021/05/11 06:09:39;;;;;;;5.62;2.87;;;;;;;18.62;51.16;101638.28;144992;701;6002;-78
2021/05/11 06:12:17;;;;;;;3.72;2.62;;;;;;;18.71;49.41;101636.59;144992;683;6002;-79
2021/05/11 06:17:28;;;;;;;6.15;2.70;;;;;;;18.79;49.22;101640.22;144992;636;6004;-78
2021/05/11 06:19:55;;;;;;;7.30;2.67;;;;;;;18.78;49.75;101639.31;144992;573;6005;-78
2021/05/11 06:22:22;;;;;;;5.37;2.75;;;;;;;18.77;50.50;101632.31;144992;590;6004;-79
2021/05/11 06:24:48;;;;;;;7.03;2.55;;;;;;;18.78;49.88;101634.06;144992;564;6004;-78
2021/05/11 06:27:15;;;;;;;6.60;2.50;;;;;;;18.81;49.78;101634.09;144992;692;6004;-77
2021/05/11 06:29:45;;;;;;;5.72;2.47;;;;;;;18.79;50.11;101634.97;144992;593;6004;-79
2021/05/11 06:32:12;;;;;;;9.48;2.50;;;;;;;18.87;49.30;101637.69;144992;679;6004;-78
2021/05/11 06:34:44;;;;;;;3.83;2.28;;;;;;;18.86;49.35;101626.28;144992;647;6004;-79
2021/05/11 06:37:10;;;;;;;2.50;1.83;;;;;;;18.79;48.71;101625.31;144992;568;6004;-79
2021/05/11 06:39:37;;;;;;;6.00;1.70;;;;;;;18.77;49.00;101632.31;144992;572;6004;-79
2021/05/11 06:42:04;;;;;;;4.07;1.92;;;;;;;18.67;48.55;101622.56;144992;610;6004;-79
2021/05/11 06:44:46;;;;;;;6.12;2.30;;;;;;;18.76;48.21;101613.91;144991;657;6000;-79
2021/05/11 06:55:26;;;;;;;7.35;2.50;;;;;;;18.91;49.67;101616.69;144992;573;6004;-78
2021/05/11 06:57:54;;;;;;;6.95;3.03;;;;;;;18.70;51.91;101629.59;144992;656;6004;-80
2021/05/11 07:00:21;;;;;;;5.03;2.33;;;;;;;18.64;50.78;101627.78;144992;572;6004;-81
2021/05/11 07:02:48;;;;;;;7.53;2.90;;;;;;;18.76;51.25;101620.03;144992;594;6004;-78
2021/05/11 07:05:14;;;;;;;5.47;2.80;;;;;;;18.77;51.56;101606.03;144992;573;6004;-79
2021/05/11 07:07:43;;;;;;;3.92;2.22;;;;;;;18.77;51.37;101611.28;144992;630;6004;-79
2021/05/11 07:10:19;;;;;;;4.97;2.20;;;;;;;18.89;51.51;101613.16;144992;579;6004;-78
2021/05/11 07:15:30;;;;;;;4.60;2.17;;;;;;;18.87;51.87;101607.03;144992;566;6017;-80
2021/05/11 07:18:10;;;;;;;4.47;2.35;;;;;;;18.94;51.79;101607.94;144992;682;6002;-80
2021/05/11 07:20:38;;;;;;;5.07;2.00;;;;;;;18.91;51.22;101605.28;144992;666;6002;-80
2021/05/11 07:23:04;;;;;;;4.47;2.00;;;;;;;18.81;51.40;101597.28;144992;572;6002;-80
2021/05/11 07:25:39;;;;;;;4.20;1.73;;;;;;;18.88;51.14;101606.13;144992;587;6002;-80
2021/05/11 07:31:06;;;;;;;5.03;2.00;;;;;;;19.12;51.51;101597.59;144992;642;6004;-79
2021/05/11 07:33:47;;;;;;;4.87;2.00;;;;;;;18.88;52.06;101600.00;144992;615;6004;-78
2021/05/11 07:36:16;;;;;;;3.78;1.95;;;;;;;18.97;52.11;101606.22;144992;674;6004;-76
2021/05/11 07:38:45;;;;;;;4.05;1.60;;;;;;;19.12;51.63;101604.59;144992;594;6004;-76
2021/05/11 07:41:15;;;;;;;5.15;1.48;;;;;;;19.19;47.60;101603.78;144992;573;6004;-81
2021/05/11 07:43:45;;;;;;;5.72;2.22;;;;;;;19.32;49.29;101600.38;144992;562;6004;-80
2021/05/11 07:46:34;;;;;;;7.30;2.25;;;;;;;19.32;50.77;101596.88;144992;635;6004;-75
2021/05/11 08:06:23;;;;;;;6.47;2.10;;;;;;;19.43;51.79;101600.47;144992;570;6004;-81
2021/05/11 08:16:58;;;;;;;4.93;1.70;;;;;;;19.42;51.43;101596.06;144992;584;6004;-80
2021/05/11 08:19:53;;;;;;;3.65;2.00;;;;;;;19.54;51.44;101598.78;144992;568;6004;-80
2021/05/11 08:27:58;;;;;;;;;;;;;;;19.61;52.14;101589.16;144997;907;6004;-79
2021/05/11 08:30:25;;;;;;;3.80;1.60;;;;;;;19.63;52.31;101590.06;144997;716;6002;-79
2021/05/11 08:32:52;;;;;;;6.65;1.90;;;;;;;19.62;52.71;101592.69;144992;569;6002;-79
2021/05/11 08:35:18;;;;;;;3.97;2.00;;;;;;;19.67;52.30;101590.97;144992;606;6002;-80
2021/05/11 08:37:48;;;;;;;7.72;1.87;;;;;;;19.86;51.91;101592.84;144992;586;6002;-80
2021/05/11 08:40:15;;;;;;;5.60;2.00;;;;;;;19.84;51.53;101599.87;144992;575;6002;-81
2021/05/11 08:42:45;;;;;;;3.47;1.75;;;;;;;19.60;52.00;101602.31;144992;672;6002;-81
2021/05/11 08:45:14;;;;;;;3.17;1.77;;;;;;;19.71;52.05;101595.38;144992;737;6002;-81
2021/05/11 08:47:50;;;;;;;5.80;1.70;;;;;;;19.67;52.59;101597.09;144992;563;6002;-79
2021/05/11 08:50:26;;;;;;;3.62;1.80;;;;;;;19.60;53.42;101591.78;144992;569;6002;-80
2021/05/11 09:04:47;;;;;;;5.93;2.30;;;;;;;19.70;52.84;101580.44;144992;585;6002;-80
2021/05/11 09:08:04;;;;;;;4.65;1.85;;;;;;;19.40;54.64;101574.12;144991;586;6002;-80
2021/05/11 09:24:54;;;;;;;3.80;1.90;;;;;;;19.64;53.79;101569.88;144992;599;6002;-79
2021/05/11 09:30:22;;;;;;;3.28;1.87;;;;;;;19.66;53.86;101566.41;144992;593;6004;-81
2021/05/11 10:10:35;;;;;;;5.87;2.00;;;;;;;20.08;53.06;101541.13;144992;588;6010;-80
2021/05/11 10:40:38;;;;;;;7.22;1.58;;;;;;;20.41;49.44;101504.28;144992;593;6002;-80
2021/05/11 10:48:38;;;;;;;2.47;1.23;;;;;;;20.37;48.96;101497.28;144992;580;6002;-80
2021/05/11 10:51:16;;;;;;;6.03;1.40;;;;;;;20.47;48.48;101502.56;144993;563;6002;-79
2021/05/11 10:54:04;;;;;;;5.35;1.87;;;;;;;20.39;47.80;101487.59;144993;594;6002;-77
2021/05/11 10:56:52;;;;;;;4.47;1.75;;;;;;;20.58;47.78;101492.00;144993;583;6002;-79
2021/05/11 10:59:48;;;;;;;3.65;1.70;;;;;;;20.64;47.89;101486.78;144993;669;6000;-81
2021/05/11 11:05:58;;;;;;;5.53;1.30;;;;;;;20.65;48.70;101488.53;144993;574;6000;-80
2021/05/11 11:08:42;;;;;;;4.12;1.42;;;;;;;20.63;48.39;101478.81;144993;600;6000;-78
2021/05/11 11:11:16;;;;;;;5.47;1.25;;;;;;;20.67;48.36;101474.47;144993;564;6002;-79
2021/05/11 11:13:47;;;;;;;5.25;1.40;;;;;;;20.58;49.07;101481.44;144993;581;6002;-77
2021/05/11 11:16:16;;;;;;;3.22;1.37;;;;;;;20.71;48.69;101482.41;144992;582;6002;-80
2021/05/11 11:18:44;;;;;;;10.23;2.35;;;;;;;20.61;49.74;101481.47;144992;607;6002;-80
2021/05/11 11:23:59;;;;;;;3.20;1.30;;;;;;;20.65;49.18;101485.91;144992;593;6000;-79
2021/05/11 11:26:42;;;;;;;8.10;1.25;;;;;;;20.68;49.13;101492.03;144992;569;6000;-78
2021/05/11 11:29:12;;;;;;;3.03;1.42;;;;;;;20.61;49.51;101481.47;144992;614;6000;-78
2021/05/11 11:31:44;;;;;;;5.15;1.30;;;;;;;20.66;50.32;101470.94;144992;642;6000;-79
2021/05/11 11:34:33;;;;;;;3.40;1.20;;;;;;;20.71;50.07;101470.94;144992;600;6000;-80
2021/05/11 11:37:03;;;;;;;4.28;1.33;;;;;;;20.70;49.81;101464.81;144993;588;6000;-81
2021/05/11 11:39:45;;;;;;;4.28;1.17;;;;;;;20.60;49.83;101466.53;144993;589;6002;-75
2021/05/11 11:42:20;;;;;;;10.15;4.22;;;;;;;20.81;49.63;101460.41;144993;569;6002;-74
2021/05/11 11:44:52;;;;;;;3.90;1.10;;;;;;;21.05;48.73;101463.87;144993;618;6002;-77
2021/05/11 11:47:23;;;;;;;4.75;1.30;;;;;;;21.10;48.92;101454.19;144993;569;6002;-80
2021/05/11 11:50:00;;;;;;;4.25;1.40;;;;;;;21.19;49.26;101453.31;144993;564;6002;-80
2021/05/11 11:52:37;;;;;;;5.45;1.60;;;;;;;21.05;47.60;101457.75;144993;613;6002;-78
2021/05/11 11:55:29;;;;;;;11.30;1.37;;;;;;;21.21;48.04;101440.97;144993;593;6002;-80
2021/05/11 11:57:55;;;;;;;13.30;3.95;;;;;;;21.07;48.33;101445.41;144993;592;6002;-77
2021/05/11 12:00:33;;;;;;;5.07;2.12;;;;;;;21.15;48.15;101439.22;144993;571;6002;-80
2021/05/11 12:03:18;;;;;;;7.25;1.92;;;;;;;21.14;47.94;101436.56;144993;570;6002;-79
2021/05/11 12:05:51;;;;;;;4.30;1.35;;;;;;;21.13;48.52;101426.91;144993;581;6000;-78
2021/05/11 12:08:25;;;;;;;3.33;1.08;;;;;;;21.07;48.57;101445.41;144993;621;6002;-80
2021/05/11 12:11:00;;;;;;;4.72;1.27;;;;;;;20.97;48.14;101428.72;144993;571;6002;-79
2021/05/11 12:13:32;;;;;;;3.72;1.20;;;;;;;21.28;47.33;101432.12;144993;563;6002;-77
2021/05/11 12:16:15;;;;;;;2.08;0.90;;;;;;;21.31;48.12;101424.19;144993;633;6002;-78
2021/05/11 12:19:10;;;;;;;3.87;1.55;;;;;;;21.48;47.60;101436.47;144993;580;6002;-76
2021/05/11 12:22:06;;;;;;;5.50;1.25;;;;;;;21.45;47.28;101420.66;144993;633;6002;-77
2021/05/11 12:24:35;;;;;;;5.15;1.80;;;;;;;21.12;48.23;101410.19;144993;580;6005;-77
2021/05/11 12:27:16;;;;;;;3.28;1.80;;;;;;;21.26;48.66;101410.16;144993;619;6002;-78
2021/05/11 12:30:05;;;;;;;5.87;1.62;;;;;;;21.42;47.75;101407.44;144993;645;6002;-77
2021/05/11 12:32:32;;;;;;;4.55;1.23;;;;;;;21.33;46.71;101403.97;144994;601;5004;-78
2021/05/11 12:35:10;;;;;;;4.82;1.20;;;;;;;21.40;45.23;101403.94;144994;563;5004;-76
2021/05/11 12:37:50;;;;;;;4.03;1.10;;;;;;;21.19;46.74;101384.66;144994;575;5004;-78
2021/05/11 12:40:25;;;;;;;4.30;1.30;;;;;;;21.31;45.22;101389.00;144994;614;5004;-79
2021/05/11 12:42:51;;;;;;;;;;;;;;;21.28;43.56;101396.94;144998;909;5004;-79
2021/05/11 12:45:18;;;;;;;5.37;1.20;;;;;;;21.34;45.40;101376.66;144998;567;5000;-78
2021/05/11 12:47:53;;;;;;;5.18;1.20;;;;;;;21.32;45.83;101386.34;144994;611;5004;-79
2021/05/11 12:50:24;;;;;;;4.93;1.30;;;;;;;21.51;45.64;101378.41;144994;575;5004;-78
2021/05/11 12:52:52;;;;;;;4.32;1.02;;;;;;;21.51;45.72;101391.59;144994;608;5004;-79
2021/05/11 13:01:49;;;;;;;;;;;;;;;21.47;48.95;101374.84;144998;905;5005;-77
2021/05/11 13:16:13;;;;;;;4.47;1.20;;;;;;;21.22;49.05;101350.34;144994;665;5004;-82
2021/05/11 13:35:25;;;;;;;8.40;1.52;;;;;;;21.00;51.74;101345.13;144994;615;5004;-80
2021/05/11 13:37:51;;;;;;;8.82;1.62;;;;;;;21.08;51.98;101341.56;144994;562;5004;-78
2021/05/11 13:40:18;;;;;;;6.70;1.40;;;;;;;21.09;52.37;101345.97;144994;565;5004;-79
2021/05/11 13:42:44;;;;;;;3.85;1.20;;;;;;;21.06;51.73;101340.69;144994;615;5004;-80
2021/05/11 13:45:11;;;;;;;4.12;1.17;;;;;;;21.12;51.53;101328.34;144994;616;5004;-80
2021/05/11 13:47:40;;;;;;;7.57;1.40;;;;;;;21.20;51.48;101342.41;144994;606;5004;-78
2021/05/11 13:50:12;;;;;;;8.15;1.27;;;;;;;21.22;51.55;101338.87;144994;590;5004;-78
2021/05/11 13:52:38;;;;;;;8.65;1.48;;;;;;;21.23;51.35;101328.31;144994;577;5004;-78
2021/05/11 13:55:14;;;;;;;5.20;1.17;;;;;;;21.19;51.98;101331.87;144994;581;5004;-80
2021/05/11 14:03:09;;;;;;;2.72;1.23;;;;;;;20.95;50.87;101306.41;144994;604;5004;-79
2021/05/11 14:05:36;;;;;;;4.62;1.40;;;;;;;21.05;51.22;101307.28;144994;562;5004;-79
2021/05/11 14:08:03;;;;;;;3.78;1.20;;;;;;;21.21;50.65;101301.03;144994;720;5004;-80
2021/05/11 14:10:30;;;;;;;3.87;1.67;;;;;;;21.31;50.22;101294.81;144994;608;5004;-80
2021/05/11 14:12:56;;;;;;;5.18;1.20;;;;;;;21.35;48.23;101296.56;144994;634;5004;-80
2021/05/11 14:15:23;;;;;;;3.62;1.10;;;;;;;21.33;45.07;101306.28;144994;571;5004;-79
2021/05/11 14:17:49;;;;;;;4.35;1.00;;;;;;;21.22;45.93;101292.25;144994;579;5004;-79
2021/05/11 14:20:16;;;;;;;4.70;1.10;;;;;;;21.37;45.90;101294.78;144994;680;5004;-78
2021/05/11 14:22:42;;;;;;;5.80;1.45;;;;;;;21.34;46.42;101297.44;144994;613;5004;-80
2021/05/11 14:25:09;;;;;;;4.60;1.30;;;;;;;21.38;45.58;101296.53;144994;632;5004;-81
2021/05/11 14:27:36;;;;;;;3.55;1.23;;;;;;;21.37;45.13;101297.41;144994;563;5004;-86
2021/05/11 14:30:03;;;;;;;3.42;1.00;;;;;;;21.40;44.68;101295.66;144994;636;5004;-78
2021/05/11 14:32:29;;;;;;;3.53;1.20;;;;;;;21.29;45.38;101279.88;144994;578;5004;-77
2021/05/11 14:34:56;;;;;;;8.13;1.30;;;;;;;21.44;45.37;101290.34;144994;675;5004;-78
2021/05/11 14:37:22;;;;;;;4.82;1.17;;;;;;;21.52;43.17;101274.47;144994;627;5004;-78
2021/05/11 14:39:49;;;;;;;5.35;1.40;;;;;;;21.29;44.19;101283.38;144994;556;5004;-77
2021/05/11 14:42:15;;;;;;;6.35;1.40;;;;;;;21.34;44.46;101278.09;144994;619;5004;-76
2021/05/11 14:44:42;;;;;;;3.53;1.08;;;;;;;21.23;44.88;101275.50;144994;630;5004;-79
2021/05/11 14:47:08;;;;;;;4.70;1.40;;;;;;;21.30;44.39;101277.25;144993;577;5004;-78
2021/05/11 14:49:34;;;;;;;4.55;1.20;;;;;;;21.48;44.69;101276.28;144994;682;5002;-76
2021/05/11 14:52:01;;;;;;;2.60;1.12;;;;;;;21.27;44.70;101277.25;144994;566;5002;-78
2021/05/11 14:54:28;;;;;;;5.25;1.30;;;;;;;21.24;45.45;101287.81;144994;565;5002;-73
2021/05/11 14:56:55;;;;;;;4.53;1.23;;;;;;;21.28;45.23;101273.69;144994;592;5002;-80
2021/05/11 14:59:21;;;;;;;5.70;1.58;;;;;;;21.20;45.38;101265.84;144994;569;5002;-79
2021/05/11 15:01:48;;;;;;;3.70;1.80;;;;;;;21.26;45.06;101264.06;144994;564;5002;-77
2021/05/11 15:04:14;;;;;;;5.60;1.40;;;;;;;21.29;46.05;101258.75;144994;565;5002;-78
2021/05/11 15:06:41;;;;;;;3.58;1.70;;;;;;;21.30;45.64;101253.47;144994;565;5002;-78
2021/05/11 15:09:07;;;;;;;2.97;1.37;;;;;;;21.39;45.67;101247.25;144994;675;5002;-77
2021/05/11 15:11:34;;;;;;;5.85;1.25;;;;;;;21.43;46.29;101261.28;144994;575;5002;-79
2021/05/11 15:14:01;;;;;;;6.25;1.27;;;;;;;21.38;46.68;101251.66;144994;653;5002;-77
2021/05/11 15:16:28;;;;;;;8.00;1.67;;;;;;;21.41;46.78;101245.44;144994;645;5002;-76
2021/05/11 15:18:55;;;;;;;6.40;1.30;;;;;;;21.22;47.17;101244.72;144994;598;5002;-77
2021/05/11 15:21:23;;;;;;;7.30;1.37;;;;;;;21.19;47.24;101228.91;144994;588;5002;-79
2021/05/11 15:23:50;;;;;;;3.70;1.10;;;;;;;21.31;46.89;101234.09;144994;577;5002;-77
2021/05/11 15:26:17;;;;;;;5.68;1.70;;;;;;;21.30;46.77;101242.91;144994;563;5002;-77
2021/05/11 15:28:44;;;;;;;6.15;1.67;;;;;;;21.24;47.25;101226.19;144993;583;5002;-77
2021/05/11 15:31:12;;;;;;;2.90;1.33;;;;;;;21.28;46.83;101238.50;144994;573;5002;-77
2021/05/11 15:33:38;;;;;;;3.90;1.35;;;;;;;21.18;47.27;101216.56;144994;572;5002;-78
2021/05/11 15:36:05;;;;;;;12.18;5.50;;;;;;;21.28;47.47;101220.03;144994;687;5002;-76
2021/05/11 15:38:32;;;;;;;5.95;1.60;;;;;;;21.25;47.97;101218.28;144994;657;5002;-78
2021/05/11 15:40:59;;;;;;;6.05;2.42;;;;;;;21.27;47.46;101216.53;144994;640;5002;-77
2021/05/11 15:43:26;;;;;;;6.05;2.87;;;;;;;21.17;47.75;101212.16;144994;581;5002;-77
2021/05/11 15:45:52;;;;;;;5.95;1.75;;;;;;;21.02;48.46;101213.16;144994;603;5002;-78
2021/05/11 15:48:19;;;;;;;4.93;1.40;;;;;;;21.11;48.17;101214.84;144994;614;5002;-78
2021/05/11 15:50:47;;;;;;;4.50;1.20;;;;;;;21.02;49.18;101221.94;144994;575;5002;-79
2021/05/11 15:53:19;;;;;;;2.40;1.40;;;;;;;21.06;48.89;101216.66;144994;629;5002;-80
2021/05/11 15:55:49;;;;;;;2.92;1.20;;;;;;;20.99;49.00;101211.41;144994;809;5002;-76